sensor_id;sensor_type;location;lat;lon;timestamp;P1;durP1;ratioP1;P2;durP2;ratioP2
50631;SDS011;49583;45.590;-122.498;2022-08-03T00:02:28;2.80;;;1.20;;
50631;SDS011;49583;45.590;-122.498;2022-08-03T00:07:19;1.70;;;1.10;;
50631;SDS011;49583;45.590;-122.498;2022-08-03T00:09:54;6.30;;;1.10;;
50631;SDS011;49583;45.590;-122.498;2022-08-03T00:14:27;1.70;;;1.50;;
50631;SDS011;49583;45.590;-122.498;2022-08-03T00:16:51;2.00;;;1.50;;
50631;SDS011;49583;45.590;-122.498;2022-08-03T00:22:11;1.70;;;1.00;;
50631;SDS011;49583;45.590;-122.498;2022-08-03T00:24:49;5.20;;;1.80;;
50631;SDS011;49583;45.590;-122.498;2022-08-03T00:27:03;5.30;;;1.60;;
50631;SDS011;49583;45.590;-122.498;2022-08-03T00:29:34;2.00;;;1.20;;
50631;SDS011;49583;45.590;-122.498;2022-08-03T00:32:04;5.10;;;1.80;;
50631;SDS011;49583;45.590;-122.498;2022-08-03T00:34:38;2.70;;;1.50;;
50631;SDS011;49583;45.590;-122.498;2022-08-03T00:37:08;6.90;;;1.70;;
50631;SDS011;49583;45.590;-122.498;2022-08-03T00:39:30;3.70;;;1.50;;
50631;SDS011;49583;45.590;-122.498;2022-08-03T00:41:41;3.40;;;1.50;;
50631;SDS011;49583;45.590;-122.498;2022-08-03T00:47:13;1.30;;;1.20;;
50631;SDS011;49583;45.590;-122.498;2022-08-03T00:52:27;3.60;;;1.50;;
50631;SDS011;49583;45.590;-122.498;2022-08-03T00:58:04;1.20;;;1.10;;
50631;SDS011;49583;45.590;-122.498;2022-08-03T01:00:23;1.60;;;1.10;;
50631;SDS011;49583;45.590;-122.498;2022-08-03T01:02:35;2.80;;;1.40;;
50631;SDS011;49583;45.590;-122.498;2022-08-03T01:07:37;1.60;;;1.30;;
50631;SDS011;49583;45.590;-122.498;2022-08-03T01:11:09;3.30;;;2.10;;
50631;SDS011;49583;45.590;-122.498;2022-08-03T01:17:18;1.80;;;1.20;;
50631;SDS011;49583;45.590;-122.498;2022-08-03T01:26:19;2.40;;;1.10;;
50631;SDS011;49583;45.590;-122.498;2022-08-03T01:31:44;3.70;;;1.20;;
50631;SDS011;49583;45.590;-122.498;2022-08-03T01:34:27;2.30;;;1.50;;
50631;SDS011;49583;45.590;-122.498;2022-08-03T01:36:59;2.00;;;1.40;;
50631;SDS011;49583;45.590;-122.498;2022-08-03T01:39:52;4.60;;;1.30;;
50631;SDS011;49583;45.590;-122.498;2022-08-03T01:42:25;3.50;;;1.50;;
50631;SDS011;49583;45.590;-122.498;2022-08-03T01:44:40;4.00;;;1.90;;
50631;SDS011;49583;45.590;-122.498;2022-08-03T01:47:13;3.40;;;2.30;;
50631;SDS011;49583;45.590;-122.498;2022-08-03T01:49:37;7.40;;;1.90;;
50631;SDS011;49583;45.590;-122.498;2022-08-03T01:58:11;2.50;;;1.10;;
50631;SDS011;49583;45.590;-122.498;2022-08-03T02:06:13;4.70;;;1.30;;
50631;SDS011;49583;45.590;-122.498;2022-08-03T02:09:17;4.50;;;1.50;;
50631;SDS011;49583;45.590;-122.498;2022-08-03T02:14:29;3.40;;;1.20;;
50631;SDS011;49583;45.590;-122.498;2022-08-03T02:17:18;3.00;;;1.40;;
50631;SDS011;49583;45.590;-122.498;2022-08-03T02:25:32;5.80;;;1.40;;
50631;SDS011;49583;45.590;-122.498;2022-08-03T02:28:00;3.60;;;1.70;;
50631;SDS011;49583;45.590;-122.498;2022-08-03T02:30:26;2.80;;;1.40;;
50631;SDS011;49583;45.590;-122.498;2022-08-03T02:32:53;3.40;;;1.40;;
50631;SDS011;49583;45.590;-122.498;2022-08-03T02:35:34;4.50;;;1.50;;
50631;SDS011;49583;45.590;-122.498;2022-08-03T02:40:38;2.20;;;1.40;;
50631;SDS011;49583;45.590;-122.498;2022-08-03T02:43:14;2.30;;;1.80;;
50631;SDS011;49583;45.590;-122.498;2022-08-03T02:49:23;5.20;;;1.50;;
50631;SDS011;49583;45.590;-122.498;2022-08-03T02:52:25;3.80;;;1.50;;
50631;SDS011;49583;45.590;-122.498;2022-08-03T02:57:58;4.90;;;1.50;;
50631;SDS011;49583;45.590;-122.498;2022-08-03T03:00:59;4.50;;;1.30;;
50631;SDS011;49583;45.590;-122.498;2022-08-03T03:06:27;3.90;;;1.40;;
50631;SDS011;49583;45.590;-122.498;2022-08-03T03:09:18;4.50;;;1.80;;
50631;SDS011;49583;45.590;-122.498;2022-08-03T03:11:49;3.30;;;1.70;;
50631;SDS011;49583;45.590;-122.498;2022-08-03T03:14:26;7.00;;;1.40;;
50631;SDS011;49583;45.590;-122.498;2022-08-03T03:23:23;4.10;;;1.20;;
50631;SDS011;49583;45.590;-122.498;2022-08-03T03:25:35;2.60;;;1.60;;
50631;SDS011;49583;45.590;-122.498;2022-08-03T03:28:25;3.20;;;1.60;;
50631;SDS011;49583;45.590;-122.498;2022-08-03T03:30:40;6.50;;;2.10;;
50631;SDS011;49583;45.590;-122.498;2022-08-03T03:33:11;3.60;;;1.60;;
50631;SDS011;49583;45.590;-122.498;2022-08-03T03:35:35;3.60;;;1.40;;
50631;SDS011;49583;45.590;-122.498;2022-08-03T03:37:58;2.50;;;1.40;;
50631;SDS011;49583;45.590;-122.498;2022-08-03T03:40:34;4.70;;;1.60;;
50631;SDS011;49583;45.590;-122.498;2022-08-03T03:42:58;6.10;;;1.90;;
50631;SDS011;49583;45.590;-122.498;2022-08-03T03:50:59;3.50;;;1.40;;
50631;SDS011;49583;45.590;-122.498;2022-08-03T03:53:41;4.20;;;1.90;;
50631;SDS011;49583;45.590;-122.498;2022-08-03T03:56:24;3.30;;;1.40;;
50631;SDS011;49583;45.590;-122.498;2022-08-03T04:01:51;4.00;;;1.60;;
50631;SDS011;49583;45.590;-122.498;2022-08-03T04:04:14;4.10;;;1.40;;
50631;SDS011;49583;45.590;-122.498;2022-08-03T04:06:50;7.10;;;1.40;;
50631;SDS011;49583;45.590;-122.498;2022-08-03T04:15:50;8.80;;;1.60;;
50631;SDS011;49583;45.590;-122.498;2022-08-03T04:18:40;1.30;;;1.20;;
50631;SDS011;49583;45.590;-122.498;2022-08-03T04:21:03;4.20;;;1.50;;
50631;SDS011;49583;45.590;-122.498;2022-08-03T04:26:52;3.60;;;1.30;;
50631;SDS011;49583;45.590;-122.498;2022-08-03T04:29:18;2.60;;;1.10;;
50631;SDS011;49583;45.590;-122.498;2022-08-03T04:34:40;8.10;;;1.40;;
50631;SDS011;49583;45.590;-122.498;2022-08-03T04:37:13;3.00;;;1.10;;
50631;SDS011;49583;45.590;-122.498;2022-08-03T04:45:52;11.50;;;2.00;;
50631;SDS011;49583;45.590;-122.498;2022-08-03T04:48:14;5.20;;;1.80;;
50631;SDS011;49583;45.590;-122.498;2022-08-03T04:56:39;4.70;;;1.30;;
50631;SDS011;49583;45.590;-122.498;2022-08-03T04:59:05;3.20;;;1.10;;
50631;SDS011;49583;45.590;-122.498;2022-08-03T05:01:54;5.20;;;1.20;;
50631;SDS011;49583;45.590;-122.498;2022-08-03T05:04:32;3.90;;;1.20;;
50631;SDS011;49583;45.590;-122.498;2022-08-03T05:07:19;4.20;;;1.10;;
50631;SDS011;49583;45.590;-122.498;2022-08-03T05:10:08;1.70;;;0.90;;
50631;SDS011;49583;45.590;-122.498;2022-08-03T05:13:01;2.80;;;0.90;;
50631;SDS011;49583;45.590;-122.498;2022-08-03T05:15:23;1.20;;;0.80;;
50631;SDS011;49583;45.590;-122.498;2022-08-03T05:17:55;1.60;;;0.90;;
50631;SDS011;49583;45.590;-122.498;2022-08-03T05:23:35;2.00;;;0.90;;
50631;SDS011;49583;45.590;-122.498;2022-08-03T05:31:22;3.60;;;1.00;;
50631;SDS011;49583;45.590;-122.498;2022-08-03T05:42:13;1.50;;;0.90;;
50631;SDS011;49583;45.590;-122.498;2022-08-03T05:44:49;2.70;;;1.00;;
50631;SDS011;49583;45.590;-122.498;2022-08-03T05:47:35;2.80;;;1.10;;
50631;SDS011;49583;45.590;-122.498;2022-08-03T05:49:50;4.20;;;1.20;;
50631;SDS011;49583;45.590;-122.498;2022-08-03T05:52:03;3.50;;;1.20;;
50631;SDS011;49583;45.590;-122.498;2022-08-03T05:55:01;1.80;;;1.00;;
50631;SDS011;49583;45.590;-122.498;2022-08-03T05:57:34;3.60;;;1.30;;
50631;SDS011;49583;45.590;-122.498;2022-08-03T05:59:50;3.30;;;1.50;;
50631;SDS011;49583;45.590;-122.498;2022-08-03T06:02:29;2.20;;;0.90;;
50631;SDS011;49583;45.590;-122.498;2022-08-03T06:04:56;4.90;;;1.30;;
50631;SDS011;49583;45.590;-122.498;2022-08-03T06:07:47;2.50;;;1.20;;
50631;SDS011;49583;45.590;-122.498;2022-08-03T06:10:30;1.60;;;0.90;;
50631;SDS011;49583;45.590;-122.498;2022-08-03T06:13:02;2.70;;;1.00;;
50631;SDS011;49583;45.590;-122.498;2022-08-03T06:23:32;15.10;;;1.80;;
50631;SDS011;49583;45.590;-122.498;2022-08-03T06:26:02;3.00;;;1.40;;
50631;SDS011;49583;45.590;-122.498;2022-08-03T06:28:58;3.00;;;1.60;;
50631;SDS011;49583;45.590;-122.498;2022-08-03T06:31:20;3.50;;;1.10;;
50631;SDS011;49583;45.590;-122.498;2022-08-03T06:37:06;2.80;;;1.30;;
50631;SDS011;49583;45.590;-122.498;2022-08-03T06:39:37;1.90;;;1.10;;
50631;SDS011;49583;45.590;-122.498;2022-08-03T06:42:07;5.20;;;1.50;;
50631;SDS011;49583;45.590;-122.498;2022-08-03T06:44:53;4.10;;;1.30;;
50631;SDS011;49583;45.590;-122.498;2022-08-03T06:47:39;6.10;;;1.10;;
50631;SDS011;49583;45.590;-122.498;2022-08-03T06:53:11;2.70;;;1.70;;
50631;SDS011;49583;45.590;-122.498;2022-08-03T06:58:48;2.80;;;1.40;;
50631;SDS011;49583;45.590;-122.498;2022-08-03T07:01:40;2.50;;;1.70;;
50631;SDS011;49583;45.590;-122.498;2022-08-03T07:03:55;6.40;;;1.30;;
50631;SDS011;49583;45.590;-122.498;2022-08-03T07:06:35;3.10;;;1.10;;
50631;SDS011;49583;45.590;-122.498;2022-08-03T07:09:03;7.00;;;1.60;;
50631;SDS011;49583;45.590;-122.498;2022-08-03T07:11:31;4.70;;;1.70;;
50631;SDS011;49583;45.590;-122.498;2022-08-03T07:13:43;3.90;;;1.50;;
50631;SDS011;49583;45.590;-122.498;2022-08-03T07:19:33;4.00;;;1.40;;
50631;SDS011;49583;45.590;-122.498;2022-08-03T07:22:10;3.50;;;1.50;;
50631;SDS011;49583;45.590;-122.498;2022-08-03T07:24:51;3.10;;;1.50;;
50631;SDS011;49583;45.590;-122.498;2022-08-03T07:27:21;5.80;;;1.90;;
50631;SDS011;49583;45.590;-122.498;2022-08-03T07:30:21;6.70;;;1.90;;
50631;SDS011;49583;45.590;-122.498;2022-08-03T07:33:02;8.70;;;1.80;;
50631;SDS011;49583;45.590;-122.498;2022-08-03T07:35:43;2.70;;;1.50;;
50631;SDS011;49583;45.590;-122.498;2022-08-03T07:44:53;3.20;;;1.50;;
50631;SDS011;49583;45.590;-122.498;2022-08-03T07:47:41;5.00;;;1.50;;
50631;SDS011;49583;45.590;-122.498;2022-08-03T07:50:05;3.50;;;1.40;;
50631;SDS011;49583;45.590;-122.498;2022-08-03T07:52:48;7.30;;;2.00;;
50631;SDS011;49583;45.590;-122.498;2022-08-03T07:55:22;4.20;;;2.50;;
50631;SDS011;49583;45.590;-122.498;2022-08-03T07:58:05;2.90;;;1.60;;
50631;SDS011;49583;45.590;-122.498;2022-08-03T08:00:48;4.10;;;1.60;;
50631;SDS011;49583;45.590;-122.498;2022-08-03T08:03:39;4.10;;;1.80;;
50631;SDS011;49583;45.590;-122.498;2022-08-03T08:08:47;3.20;;;2.20;;
50631;SDS011;49583;45.590;-122.498;2022-08-03T08:14:33;4.10;;;1.80;;
50631;SDS011;49583;45.590;-122.498;2022-08-03T08:20:30;5.70;;;1.60;;
50631;SDS011;49583;45.590;-122.498;2022-08-03T08:23:14;3.40;;;2.00;;
50631;SDS011;49583;45.590;-122.498;2022-08-03T08:26:12;6.70;;;2.00;;
50631;SDS011;49583;45.590;-122.498;2022-08-03T08:29:21;8.00;;;2.30;;
50631;SDS011;49583;45.590;-122.498;2022-08-03T08:34:50;6.70;;;2.00;;
50631;SDS011;49583;45.590;-122.498;2022-08-03T08:37:34;4.70;;;2.10;;
50631;SDS011;49583;45.590;-122.498;2022-08-03T08:40:00;5.00;;;2.00;;
50631;SDS011;49583;45.590;-122.498;2022-08-03T08:45:35;6.10;;;2.50;;
50631;SDS011;49583;45.590;-122.498;2022-08-03T08:51:08;3.30;;;2.30;;
50631;SDS011;49583;45.590;-122.498;2022-08-03T08:54:08;7.50;;;2.30;;
50631;SDS011;49583;45.590;-122.498;2022-08-03T09:00:32;4.70;;;2.10;;
50631;SDS011;49583;45.590;-122.498;2022-08-03T09:02:44;4.10;;;2.40;;
50631;SDS011;49583;45.590;-122.498;2022-08-03T09:07:21;8.70;;;2.30;;
50631;SDS011;49583;45.590;-122.498;2022-08-03T09:09:45;7.50;;;2.30;;
50631;SDS011;49583;45.590;-122.498;2022-08-03T09:12:19;5.20;;;2.70;;
50631;SDS011;49583;45.590;-122.498;2022-08-03T09:15:14;5.50;;;2.60;;
50631;SDS011;49583;45.590;-122.498;2022-08-03T09:17:55;4.20;;;2.30;;
50631;SDS011;49583;45.590;-122.498;2022-08-03T09:20:18;5.00;;;2.10;;
50631;SDS011;49583;45.590;-122.498;2022-08-03T09:23:29;6.50;;;2.80;;
50631;SDS011;49583;45.590;-122.498;2022-08-03T09:26:28;3.60;;;2.30;;
50631;SDS011;49583;45.590;-122.498;2022-08-03T09:32:44;5.20;;;2.60;;
50631;SDS011;49583;45.590;-122.498;2022-08-03T09:35:16;2.90;;;2.20;;
50631;SDS011;49583;45.590;-122.498;2022-08-03T09:38:08;5.50;;;2.40;;
50631;SDS011;49583;45.590;-122.498;2022-08-03T09:40:37;7.40;;;2.90;;
50631;SDS011;49583;45.590;-122.498;2022-08-03T09:43:28;7.70;;;2.60;;
50631;SDS011;49583;45.590;-122.498;2022-08-03T09:46:02;6.30;;;2.10;;
50631;SDS011;49583;45.590;-122.498;2022-08-03T09:54:54;5.40;;;2.40;;
50631;SDS011;49583;45.590;-122.498;2022-08-03T09:57:51;4.70;;;2.80;;
50631;SDS011;49583;45.590;-122.498;2022-08-03T10:00:25;9.60;;;2.60;;
50631;SDS011;49583;45.590;-122.498;2022-08-03T10:03:13;4.60;;;2.30;;
50631;SDS011;49583;45.590;-122.498;2022-08-03T10:05:37;6.10;;;2.60;;
50631;SDS011;49583;45.590;-122.498;2022-08-03T10:07:55;5.80;;;2.50;;
50631;SDS011;49583;45.590;-122.498;2022-08-03T10:10:40;4.80;;;2.80;;
50631;SDS011;49583;45.590;-122.498;2022-08-03T10:19:00;4.50;;;2.10;;
50631;SDS011;49583;45.590;-122.498;2022-08-03T10:21:40;6.40;;;2.70;;
50631;SDS011;49583;45.590;-122.498;2022-08-03T10:30:26;3.30;;;2.10;;
50631;SDS011;49583;45.590;-122.498;2022-08-03T10:36:06;7.20;;;2.90;;
50631;SDS011;49583;45.590;-122.498;2022-08-03T10:41:36;3.80;;;2.40;;
50631;SDS011;49583;45.590;-122.498;2022-08-03T10:44:08;5.20;;;2.50;;
50631;SDS011;49583;45.590;-122.498;2022-08-03T10:52:29;4.80;;;2.20;;
50631;SDS011;49583;45.590;-122.498;2022-08-03T10:58:59;4.70;;;2.60;;
50631;SDS011;49583;45.590;-122.498;2022-08-03T11:07:21;6.40;;;2.90;;
50631;SDS011;49583;45.590;-122.498;2022-08-03T11:09:40;4.40;;;2.60;;
50631;SDS011;49583;45.590;-122.498;2022-08-03T11:34:05;9.70;;;3.60;;
50631;SDS011;49583;45.590;-122.498;2022-08-03T11:39:39;7.60;;;3.70;;
50631;SDS011;49583;45.590;-122.498;2022-08-03T11:45:12;8.00;;;3.40;;
50631;SDS011;49583;45.590;-122.498;2022-08-03T11:47:35;9.70;;;3.10;;
50631;SDS011;49583;45.590;-122.498;2022-08-03T11:50:07;6.20;;;2.70;;
50631;SDS011;49583;45.590;-122.498;2022-08-03T11:52:38;5.40;;;2.90;;
50631;SDS011;49583;45.590;-122.498;2022-08-03T11:58:09;4.50;;;2.60;;
50631;SDS011;49583;45.590;-122.498;2022-08-03T12:01:08;9.80;;;2.70;;
50631;SDS011;49583;45.590;-122.498;2022-08-03T12:03:44;6.60;;;3.10;;
50631;SDS011;49583;45.590;-122.498;2022-08-03T12:11:58;7.10;;;3.10;;
50631;SDS011;49583;45.590;-122.498;2022-08-03T12:14:08;5.50;;;3.10;;
50631;SDS011;49583;45.590;-122.498;2022-08-03T12:16:49;4.90;;;3.00;;
50631;SDS011;49583;45.590;-122.498;2022-08-03T12:19:00;5.90;;;3.00;;
50631;SDS011;49583;45.590;-122.498;2022-08-03T12:21:12;6.10;;;2.90;;
50631;SDS011;49583;45.590;-122.498;2022-08-03T12:23:49;5.10;;;3.50;;
50631;SDS011;49583;45.590;-122.498;2022-08-03T12:26:08;8.60;;;3.20;;
50631;SDS011;49583;45.590;-122.498;2022-08-03T12:28:29;8.50;;;3.70;;
50631;SDS011;49583;45.590;-122.498;2022-08-03T12:30:53;7.10;;;3.50;;
50631;SDS011;49583;45.590;-122.498;2022-08-03T12:33:29;8.40;;;3.30;;
50631;SDS011;49583;45.590;-122.498;2022-08-03T12:35:39;7.70;;;3.70;;
50631;SDS011;49583;45.590;-122.498;2022-08-03T12:38:21;9.30;;;3.20;;
50631;SDS011;49583;45.590;-122.498;2022-08-03T12:40:58;5.50;;;3.30;;
50631;SDS011;49583;45.590;-122.498;2022-08-03T12:43:47;8.20;;;3.80;;
50631;SDS011;49583;45.590;-122.498;2022-08-03T12:46:17;9.40;;;3.60;;
50631;SDS011;49583;45.590;-122.498;2022-08-03T12:55:08;6.50;;;3.30;;
50631;SDS011;49583;45.590;-122.498;2022-08-03T13:03:48;9.10;;;3.90;;
50631;SDS011;49583;45.590;-122.498;2022-08-03T13:06:40;6.80;;;3.20;;
50631;SDS011;49583;45.590;-122.498;2022-08-03T13:09:09;6.80;;;3.20;;
50631;SDS011;49583;45.590;-122.498;2022-08-03T13:11:19;8.30;;;3.40;;
50631;SDS011;49583;45.590;-122.498;2022-08-03T13:14:09;7.80;;;3.50;;
50631;SDS011;49583;45.590;-122.498;2022-08-03T13:16:34;5.90;;;3.10;;
50631;SDS011;49583;45.590;-122.498;2022-08-03T13:18:44;5.40;;;4.00;;
50631;SDS011;49583;45.590;-122.498;2022-08-03T13:23:34;8.80;;;3.90;;
50631;SDS011;49583;45.590;-122.498;2022-08-03T13:26:02;10.10;;;3.80;;
50631;SDS011;49583;45.590;-122.498;2022-08-03T13:28:20;7.00;;;4.20;;
50631;SDS011;49583;45.590;-122.498;2022-08-03T13:30:51;9.70;;;3.90;;
50631;SDS011;49583;45.590;-122.498;2022-08-03T13:36:27;6.50;;;3.40;;
50631;SDS011;49583;45.590;-122.498;2022-08-03T13:39:03;8.00;;;4.10;;
50631;SDS011;49583;45.590;-122.498;2022-08-03T13:41:56;10.70;;;3.40;;
50631;SDS011;49583;45.590;-122.498;2022-08-03T13:47:04;10.30;;;4.60;;
50631;SDS011;49583;45.590;-122.498;2022-08-03T13:49:26;8.20;;;4.40;;
50631;SDS011;49583;45.590;-122.498;2022-08-03T13:51:39;5.90;;;4.30;;
50631;SDS011;49583;45.590;-122.498;2022-08-03T13:56:40;9.40;;;5.20;;
50631;SDS011;49583;45.590;-122.498;2022-08-03T13:59:13;9.10;;;4.80;;
50631;SDS011;49583;45.590;-122.498;2022-08-03T14:01:36;8.50;;;4.90;;
50631;SDS011;49583;45.590;-122.498;2022-08-03T14:03:59;11.80;;;4.50;;
50631;SDS011;49583;45.590;-122.498;2022-08-03T14:06:26;7.80;;;5.60;;
50631;SDS011;49583;45.590;-122.498;2022-08-03T14:08:52;7.10;;;4.80;;
50631;SDS011;49583;45.590;-122.498;2022-08-03T14:11:05;13.40;;;5.20;;
50631;SDS011;49583;45.590;-122.498;2022-08-03T14:13:33;6.60;;;4.40;;
50631;SDS011;49583;45.590;-122.498;2022-08-03T14:16:12;6.30;;;4.80;;
50631;SDS011;49583;45.590;-122.498;2022-08-03T14:18:36;6.50;;;4.90;;
50631;SDS011;49583;45.590;-122.498;2022-08-03T14:20:55;6.60;;;4.80;;
50631;SDS011;49583;45.590;-122.498;2022-08-03T14:26:15;10.40;;;4.70;;
50631;SDS011;49583;45.590;-122.498;2022-08-03T14:31:29;10.40;;;4.90;;
50631;SDS011;49583;45.590;-122.498;2022-08-03T14:34:07;9.10;;;4.20;;
50631;SDS011;49583;45.590;-122.498;2022-08-03T14:42:03;7.10;;;3.90;;
50631;SDS011;49583;45.590;-122.498;2022-08-03T14:44:25;8.10;;;4.30;;
50631;SDS011;49583;45.590;-122.498;2022-08-03T14:47:38;6.20;;;3.90;;
50631;SDS011;49583;45.590;-122.498;2022-08-03T14:50:26;9.90;;;4.50;;
50631;SDS011;49583;45.590;-122.498;2022-08-03T14:52:48;7.20;;;4.50;;
50631;SDS011;49583;45.590;-122.498;2022-08-03T14:55:18;11.40;;;4.50;;
50631;SDS011;49583;45.590;-122.498;2022-08-03T14:57:45;7.20;;;4.30;;
50631;SDS011;49583;45.590;-122.498;2022-08-03T15:02:24;5.00;;;3.90;;
50631;SDS011;49583;45.590;-122.498;2022-08-03T15:04:38;5.00;;;3.30;;
50631;SDS011;49583;45.590;-122.498;2022-08-03T15:07:07;4.60;;;3.80;;
50631;SDS011;49583;45.590;-122.498;2022-08-03T15:09:41;7.20;;;3.90;;
50631;SDS011;49583;45.590;-122.498;2022-08-03T15:12:25;7.30;;;4.30;;
50631;SDS011;49583;45.590;-122.498;2022-08-03T15:14:52;9.20;;;4.00;;
50631;SDS011;49583;45.590;-122.498;2022-08-03T15:17:06;7.90;;;3.70;;
50631;SDS011;49583;45.590;-122.498;2022-08-03T15:19:48;6.60;;;4.00;;
50631;SDS011;49583;45.590;-122.498;2022-08-03T15:25:58;7.40;;;4.00;;
50631;SDS011;49583;45.590;-122.498;2022-08-03T15:28:41;8.30;;;4.00;;
50631;SDS011;49583;45.590;-122.498;2022-08-03T15:31:43;9.20;;;3.90;;
50631;SDS011;49583;45.590;-122.498;2022-08-03T15:34:06;16.70;;;4.80;;
50631;SDS011;49583;45.590;-122.498;2022-08-03T15:36:25;6.60;;;4.00;;
50631;SDS011;49583;45.590;-122.498;2022-08-03T15:39:16;8.20;;;3.70;;
50631;SDS011;49583;45.590;-122.498;2022-08-03T15:42:17;6.50;;;4.10;;
50631;SDS011;49583;45.590;-122.498;2022-08-03T15:44:30;4.50;;;3.50;;
50631;SDS011;49583;45.590;-122.498;2022-08-03T15:47:21;7.00;;;3.60;;
50631;SDS011;49583;45.590;-122.498;2022-08-03T15:49:34;5.80;;;3.50;;
50631;SDS011;49583;45.590;-122.498;2022-08-03T15:52:23;6.60;;;3.40;;
50631;SDS011;49583;45.590;-122.498;2022-08-03T15:57:40;6.40;;;3.40;;
50631;SDS011;49583;45.590;-122.498;2022-08-03T16:00:25;8.00;;;4.20;;
50631;SDS011;49583;45.590;-122.498;2022-08-03T16:05:12;9.40;;;3.90;;
50631;SDS011;49583;45.590;-122.498;2022-08-03T16:07:25;5.10;;;3.30;;
50631;SDS011;49583;45.590;-122.498;2022-08-03T16:10:21;6.40;;;3.30;;
50631;SDS011;49583;45.590;-122.498;2022-08-03T16:12:59;8.40;;;3.50;;
50631;SDS011;49583;45.590;-122.498;2022-08-03T16:15:06;5.10;;;3.30;;
50631;SDS011;49583;45.590;-122.498;2022-08-03T16:17:14;3.70;;;2.80;;
50631;SDS011;49583;45.590;-122.498;2022-08-03T16:22:14;5.60;;;3.00;;
50631;SDS011;49583;45.590;-122.498;2022-08-03T16:27:40;5.70;;;3.00;;
50631;SDS011;49583;45.590;-122.498;2022-08-03T16:33:14;6.60;;;3.00;;
50631;SDS011;49583;45.590;-122.498;2022-08-03T16:36:16;7.20;;;3.00;;
50631;SDS011;49583;45.590;-122.498;2022-08-03T16:39:09;6.50;;;2.60;;
50631;SDS011;49583;45.590;-122.498;2022-08-03T16:41:19;6.60;;;3.30;;
50631;SDS011;49583;45.590;-122.498;2022-08-03T16:43:54;6.10;;;3.10;;
50631;SDS011;49583;45.590;-122.498;2022-08-03T16:46:05;5.50;;;2.80;;
50631;SDS011;49583;45.590;-122.498;2022-08-03T16:48:34;8.20;;;3.10;;
50631;SDS011;49583;45.590;-122.498;2022-08-03T16:50:46;3.30;;;2.90;;
50631;SDS011;49583;45.590;-122.498;2022-08-03T16:52:59;6.20;;;3.00;;
50631;SDS011;49583;45.590;-122.498;2022-08-03T16:55:44;5.00;;;3.30;;
50631;SDS011;49583;45.590;-122.498;2022-08-03T16:57:57;6.40;;;2.70;;
50631;SDS011;49583;45.590;-122.498;2022-08-03T17:00:17;6.90;;;2.80;;
50631;SDS011;49583;45.590;-122.498;2022-08-03T17:02:44;4.10;;;3.00;;
50631;SDS011;49583;45.590;-122.498;2022-08-03T17:05:33;7.60;;;3.00;;
50631;SDS011;49583;45.590;-122.498;2022-08-03T17:07:53;4.30;;;3.00;;
50631;SDS011;49583;45.590;-122.498;2022-08-03T17:10:42;6.60;;;3.60;;
50631;SDS011;49583;45.590;-122.498;2022-08-03T17:15:39;5.40;;;3.00;;
50631;SDS011;49583;45.590;-122.498;2022-08-03T17:18:15;6.30;;;3.00;;
50631;SDS011;49583;45.590;-122.498;2022-08-03T17:20:38;5.20;;;3.10;;
50631;SDS011;49583;45.590;-122.498;2022-08-03T17:30:19;6.00;;;2.80;;
50631;SDS011;49583;45.590;-122.498;2022-08-03T17:33:26;5.40;;;2.70;;
50631;SDS011;49583;45.590;-122.498;2022-08-03T17:35:42;4.50;;;2.90;;
50631;SDS011;49583;45.590;-122.498;2022-08-03T17:38:44;5.00;;;2.80;;
50631;SDS011;49583;45.590;-122.498;2022-08-03T17:47:00;7.90;;;3.20;;
50631;SDS011;49583;45.590;-122.498;2022-08-03T17:49:27;4.00;;;2.40;;
50631;SDS011;49583;45.590;-122.498;2022-08-03T17:55:26;6.10;;;2.70;;
50631;SDS011;49583;45.590;-122.498;2022-08-03T18:00:18;3.20;;;2.70;;
50631;SDS011;49583;45.590;-122.498;2022-08-03T18:06:08;7.90;;;3.30;;
50631;SDS011;49583;45.590;-122.498;2022-08-03T18:09:07;3.90;;;2.50;;
50631;SDS011;49583;45.590;-122.498;2022-08-03T18:15:11;4.80;;;2.50;;
50631;SDS011;49583;45.590;-122.498;2022-08-03T18:17:37;5.60;;;2.50;;
50631;SDS011;49583;45.590;-122.498;2022-08-03T18:22:57;3.40;;;2.70;;
50631;SDS011;49583;45.590;-122.498;2022-08-03T18:26:01;5.20;;;2.50;;
50631;SDS011;49583;45.590;-122.498;2022-08-03T18:38:38;8.20;;;2.50;;
50631;SDS011;49583;45.590;-122.498;2022-08-03T18:41:23;3.60;;;3.10;;
50631;SDS011;49583;45.590;-122.498;2022-08-03T18:43:47;4.90;;;2.60;;
50631;SDS011;49583;45.590;-122.498;2022-08-03T18:49:10;6.70;;;3.10;;
50631;SDS011;49583;45.590;-122.498;2022-08-03T18:51:52;4.00;;;2.60;;
50631;SDS011;49583;45.590;-122.498;2022-08-03T18:54:48;4.70;;;3.20;;
50631;SDS011;49583;45.590;-122.498;2022-08-03T18:58:36;5.70;;;2.70;;
50631;SDS011;49583;45.590;-122.498;2022-08-03T19:04:14;3.70;;;2.50;;
50631;SDS011;49583;45.590;-122.498;2022-08-03T19:06:49;3.30;;;2.30;;
50631;SDS011;49583;45.590;-122.498;2022-08-03T19:09:35;4.90;;;2.90;;
50631;SDS011;49583;45.590;-122.498;2022-08-03T19:12:30;3.80;;;2.30;;
50631;SDS011;49583;45.590;-122.498;2022-08-03T19:15:09;4.40;;;2.60;;
50631;SDS011;49583;45.590;-122.498;2022-08-03T19:17:22;4.70;;;2.40;;
50631;SDS011;49583;45.590;-122.498;2022-08-03T19:20:30;3.90;;;2.30;;
50631;SDS011;49583;45.590;-122.498;2022-08-03T19:23:14;3.50;;;2.30;;
50631;SDS011;49583;45.590;-122.498;2022-08-03T19:25:51;3.90;;;2.20;;
50631;SDS011;49583;45.590;-122.498;2022-08-03T19:28:15;2.70;;;2.20;;
50631;SDS011;49583;45.590;-122.498;2022-08-03T19:30:46;5.10;;;2.10;;
50631;SDS011;49583;45.590;-122.498;2022-08-03T19:36:14;2.50;;;1.90;;
50631;SDS011;49583;45.590;-122.498;2022-08-03T19:38:42;7.10;;;2.60;;
50631;SDS011;49583;45.590;-122.498;2022-08-03T19:41:04;3.20;;;1.80;;
50631;SDS011;49583;45.590;-122.498;2022-08-03T19:43:25;2.20;;;1.90;;
50631;SDS011;49583;45.590;-122.498;2022-08-03T19:45:55;5.40;;;2.00;;
50631;SDS011;49583;45.590;-122.498;2022-08-03T19:51:16;4.30;;;2.30;;
50631;SDS011;49583;45.590;-122.498;2022-08-03T19:54:05;2.60;;;1.80;;
50631;SDS011;49583;45.590;-122.498;2022-08-03T19:57:09;4.80;;;2.30;;
50631;SDS011;49583;45.590;-122.498;2022-08-03T19:59:48;3.90;;;1.80;;
50631;SDS011;49583;45.590;-122.498;2022-08-03T20:02:25;3.70;;;2.30;;
50631;SDS011;49583;45.590;-122.498;2022-08-03T20:08:08;2.30;;;1.80;;
50631;SDS011;49583;45.590;-122.498;2022-08-03T20:13:53;6.90;;;1.90;;
50631;SDS011;49583;45.590;-122.498;2022-08-03T20:16:32;4.90;;;2.20;;
50631;SDS011;49583;45.590;-122.498;2022-08-03T20:19:14;4.90;;;2.00;;
50631;SDS011;49583;45.590;-122.498;2022-08-03T20:22:17;5.10;;;2.20;;
50631;SDS011;49583;45.590;-122.498;2022-08-03T20:25:02;4.60;;;2.20;;
50631;SDS011;49583;45.590;-122.498;2022-08-03T20:28:12;3.70;;;2.10;;
50631;SDS011;49583;45.590;-122.498;2022-08-03T20:30:51;4.50;;;2.20;;
50631;SDS011;49583;45.590;-122.498;2022-08-03T20:33:51;6.00;;;2.30;;
50631;SDS011;49583;45.590;-122.498;2022-08-03T20:36:04;3.80;;;2.10;;
50631;SDS011;49583;45.590;-122.498;2022-08-03T20:38:55;5.10;;;2.20;;
50631;SDS011;49583;45.590;-122.498;2022-08-03T20:41:52;2.30;;;2.10;;
50631;SDS011;49583;45.590;-122.498;2022-08-03T20:50:31;3.40;;;2.20;;
50631;SDS011;49583;45.590;-122.498;2022-08-03T20:56:23;4.40;;;2.20;;
50631;SDS011;49583;45.590;-122.498;2022-08-03T20:59:00;4.00;;;2.10;;
50631;SDS011;49583;45.590;-122.498;2022-08-03T21:02:15;3.70;;;2.20;;
50631;SDS011;49583;45.590;-122.498;2022-08-03T21:04:34;3.30;;;2.30;;